Time;durP1;ratioP1;P1;durP2;ratioP2;P2;SDS_P1;SDS_P2;PMS_P1;PMS_P2;Temp;Humidity;BMP_temperature;BMP_pressure;BME280_temperature;BME280_humidity;BME280_pressure;Samples;Min_cycle;Max_cycle;Signal;HPM_P1;HPM_P2
2022/06/05 00:00:42;;;;;;;;;16.50;16.00;;;;;20.06;63.68;100821.03;5096743;27;45352;-61
2022/06/05 00:03:34;;;;;;;;;26.50;22.50;;;;;20.07;63.85;100819.22;5075885;27;45393;-61
2022/06/05 00:06:15;;;;;;;;;13.00;12.00;;;;;20.07;63.46;100808.59;5091925;27;45466;-61
2022/06/05 00:08:57;;;;;;;;;16.00;15.00;;;;;20.04;63.46;100812.31;5093439;27;46007;-61
2022/06/05 00:11:23;;;;;;;;;17.00;13.25;;;;;20.04;64.12;100808.78;5085374;27;45269;-61
2022/06/05 00:13:52;;;;;;;;;14.75;13.25;;;;;20.01;63.97;100817.84;5089861;27;45282;-61
2022/06/05 00:16:20;;;;;;;;;9.00;8.00;;;;;19.98;64.04;100823.34;5092557;27;45256;-61
2022/06/05 00:18:46;;;;;;;;;12.75;12.00;;;;;19.97;63.93;100815.47;5097415;27;46145;-61
2022/06/05 00:21:12;;;;;;;;;11.75;11.25;;;;;19.99;63.93;100813.56;5091840;27;45477;-59
2022/06/05 00:23:38;;;;;;;;;13.00;12.50;;;;;19.98;63.94;100818.03;5100465;27;45678;-61
2022/06/05 00:26:17;;;;;;;;;12.50;11.25;;;;;19.97;63.98;100821.63;5097254;27;45460;-60
2022/06/05 00:29:00;;;;;;;;;19.50;16.25;;;;;19.97;64.00;100812.81;5093015;27;45492;-61
2022/06/05 00:31:28;;;;;;;;;15.50;12.75;;;;;19.95;63.79;100802.28;5093954;27;46100;-61
2022/06/05 00:33:54;;;;;;;;;15.25;14.00;;;;;19.94;63.76;100803.25;5095711;27;45634;-61
2022/06/05 00:36:41;;;;;;;;;15.75;13.50;;;;;19.94;64.03;100803.25;5091206;27;58189;-61
2022/06/05 00:39:28;;;;;;;;;16.50;13.75;;;;;19.94;63.82;100808.56;5108429;27;45505;-61
2022/06/05 00:42:19;;;;;;;;;16.00;14.00;;;;;19.92;63.44;100798.03;5110777;27;45737;-61
2022/06/05 00:44:48;;;;;;;;;16.75;11.00;;;;;19.91;63.57;100798.97;5115959;27;45284;-59
2022/06/05 00:47:18;;;;;;;;;12.50;12.50;;;;;19.90;63.78;100785.78;5115448;27;45869;-59
2022/06/05 00:50:04;;;;;;;;;15.25;13.50;;;;;19.88;63.97;100764.66;5121605;27;45320;-58
2022/06/05 00:52:32;;;;;;;;;11.00;10.00;;;;;19.87;63.64;100768.25;5097770;27;45466;-59
2022/06/05 00:54:58;;;;;;;;;11.25;11.00;;;;;19.87;63.64;100762.09;5118770;27;45255;-58
2022/06/05 00:57:27;;;;;;;;;10.75;10.25;;;;;19.86;63.99;100771.84;5107572;27;45465;-58
2022/06/05 00:59:54;;;;;;;;;13.00;11.25;;;;;19.87;64.38;100778.88;5094783;27;45691;-58
2022/06/05 01:02:19;;;;;;;;;16.75;13.25;;;;;19.85;64.03;100785.25;5113139;27;45483;-58
2022/06/05 01:04:48;;;;;;;;;19.75;14.25;;;;;19.84;64.24;100776.41;5100255;27;57528;-58
2022/06/05 01:07:14;;;;;;;;;16.25;13.75;;;;;19.83;64.19;100781.81;5121413;27;45588;-59
2022/06/05 01:09:41;;;;;;;;;15.25;12.25;;;;;19.83;64.10;100781.81;5117278;27;45356;-58
2022/06/05 01:12:13;;;;;;;;;17.75;14.00;;;;;19.81;64.18;100779.28;5111629;27;45447;-59
2022/06/05 01:15:09;;;;;;;;;16.00;15.50;;;;;19.80;64.58;100784.72;5109694;27;45317;-59
2022/06/05 01:17:47;;;;;;;;;19.50;15.25;;;;;19.80;64.21;100776.75;5095076;27;45477;-59
2022/06/05 01:20:48;;;;;;;;;18.25;13.25;;;;;19.79;64.63;100762.59;5094616;27;46140;-59
2022/06/05 01:23:44;;;;;;;;;22.25;16.75;;;;;19.79;64.46;100751.13;5032612;28;45763;-59
2022/06/05 01:26:33;;;;;;;;;20.75;16.00;;;;;19.79;64.53;100743.16;5113880;27;45551;-59
2022/06/05 01:29:08;;;;;;;;;18.00;15.00;;;;;19.80;64.64;100727.13;5091696;27;45380;-58
2022/06/05 01:31:49;;;;;;;;;18.25;15.00;;;;;19.80;64.47;100718.31;5101264;27;47113;-59
2022/06/05 01:34:21;;;;;;;;;16.00;16.00;;;;;19.86;64.52;100723.22;5098765;27;46821;-59
2022/06/05 01:37:01;;;;;;;;;17.50;15.00;;;;;19.87;64.26;100703.69;5106297;27;45478;-59
2022/06/05 01:39:30;;;;;;;;;18.00;16.50;;;;;19.88;64.39;100708.91;5088618;27;45470;-59
2022/06/05 01:42:00;;;;;;;;;18.00;16.25;;;;;19.85;63.87;100705.59;5103589;27;45624;-59
2022/06/05 01:44:32;;;;;;;;;14.75;14.75;;;;;19.83;64.28;100699.50;5086342;27;45821;-59
2022/06/05 01:47:03;;;;;;;;;14.75;14.25;;;;;19.79;64.22;100698.84;5097443;27;45493;-59
2022/06/05 01:49:57;;;;;;;;;22.25;18.00;;;;;19.79;64.34;100688.22;5098673;27;45360;-59
2022/06/05 01:52:39;;;;;;;;;21.75;17.75;;;;;19.77;64.22;100679.53;5090909;27;45488;-59
2022/06/05 01:55:16;;;;;;;;;20.75;19.50;;;;;19.75;64.66;100668.16;5095827;27;45960;-59
2022/06/05 01:57:41;;;;;;;;;21.50;18.25;;;;;19.77;64.46;100681.34;5096873;27;46560;-59
2022/06/05 02:00:10;;;;;;;;;20.50;18.50;;;;;19.72;64.52;100679.81;5111557;27;64853;-60
2022/06/05 02:02:39;;;;;;;;;24.25;17.00;;;;;19.70;64.67;100668.41;5110287;27;46426;-59
2022/06/05 02:05:08;;;;;;;;;24.25;19.50;;;;;19.69;64.66;100671.19;5108399;27;45371;-60
2022/06/05 02:07:39;;;;;;;;;21.00;18.00;;;;;19.67;64.50;100668.66;5100473;27;45540;-60
2022/06/05 02:10:14;;;;;;;;;24.25;20.00;;;;;19.67;64.56;100662.47;5089169;27;45775;-60
2022/06/05 02:12:40;;;;;;;;;22.50;20.75;;;;;19.65;64.76;100653.75;5098626;27;46868;-60
2022/06/05 02:15:06;;;;;;;;;22.25;21.00;;;;;19.65;64.61;100653.75;5101253;27;45253;-59
2022/06/05 02:17:32;;;;;;;;;19.25;15.25;;;;;19.61;64.93;100647.81;5113021;27;45406;-60
2022/06/05 02:19:59;;;;;;;;;24.75;18.25;;;;;19.61;64.96;100641.66;5090972;27;45366;-60
2022/06/05 02:22:28;;;;;;;;;21.50;20.00;;;;;19.58;64.82;100640.03;5098499;27;46954;-60
2022/06/05 02:24:54;;;;;;;;;19.50;15.75;;;;;19.58;65.07;100645.34;5101641;27;45481;-60
2022/06/05 02:27:22;;;;;;;;;19.75;19.75;;;;;19.57;65.13;100641.00;5093883;27;46957;-59
2022/06/05 02:29:48;;;;;;;;;22.00;19.50;;;;;19.57;65.04;100638.34;5102911;27;45261;-59
2022/06/05 02:32:28;;;;;;;;;24.00;18.50;;;;;19.57;65.08;100638.34;5108977;27;46091;-59
2022/06/05 02:35:03;;;;;;;;;17.75;15.50;;;;;19.57;65.35;100645.47;5111450;27;45424;-59
2022/06/05 02:37:56;;;;;;;;;19.50;17.50;;;;;19.57;65.14;100648.97;5092532;27;45531;-59
2022/06/05 02:40:41;;;;;;;;;16.50;15.25;;;;;19.57;64.89;100646.31;5103638;27;45645;-59
2022/06/05 02:43:19;;;;;;;;;17.75;16.75;;;;;19.57;65.28;100635.69;5115231;27;46411;-59
2022/06/05 02:45:53;;;;;;;;;21.50;16.75;;;;;19.56;65.01;100626.00;5115710;27;45779;-59
2022/06/05 02:48:41;;;;;;;;;23.25;16.25;;;;;19.57;65.15;100626.88;5106123;27;45298;-59
2022/06/05 02:51:14;;;;;;;;;15.50;15.50;;;;;19.55;64.90;100624.31;5115391;27;45378;-59
2022/06/05 02:53:50;;;;;;;;;20.00;17.75;;;;;19.57;65.10;100621.56;5098063;27;45538;-59
2022/06/05 02:56:16;;;;;;;;;27.25;20.75;;;;;19.56;64.96;100618.06;5111386;27;45804;-59
2022/06/05 02:58:41;;;;;;;;;20.25;18.25;;;;;19.57;65.21;100625.06;5110638;27;45529;-59
2022/06/05 03:04:08;;;;;;;;;19.75;17.25;;;;;19.54;65.48;100614.66;5062632;27;45903;-59
2022/06/05 03:06:35;;;;;;;;;21.25;18.75;;;;;19.54;65.43;100617.31;5106190;27;45712;-59
2022/06/05 03:09:00;;;;;;;;;20.00;17.00;;;;;19.56;65.23;100625.16;5112538;27;45290;-59
2022/06/05 03:11:26;;;;;;;;;19.75;14.25;;;;;19.54;65.59;100623.47;5103825;27;59199;-59
2022/06/05 03:13:52;;;;;;;;;16.00;15.75;;;;;19.52;65.17;100624.53;5108073;27;46147;-59
2022/06/05 03:16:17;;;;;;;;;15.00;14.50;;;;;19.47;65.45;100630.13;5108822;27;56107;-59
2022/06/05 03:18:43;;;;;;;;;14.75;13.00;;;;;19.43;65.64;100633.94;5114615;27;45371;-59
2022/06/05 03:21:08;;;;;;;;;14.25;12.75;;;;;19.37;65.74;100638.78;5112787;27;45277;-59
2022/06/05 03:23:34;;;;;;;;;13.75;12.75;;;;;19.35;65.52;100641.53;5118410;27;46119;-59
2022/06/05 03:26:00;;;;;;;;;14.50;13.00;;;;;19.33;65.40;100643.44;5114370;27;45782;-59
2022/06/05 03:28:25;;;;;;;;;12.00;12.00;;;;;19.27;65.36;100638.56;5110828;27;45334;-59
2022/06/05 03:30:51;;;;;;;;;16.25;14.50;;;;;19.22;65.33;100638.84;5111694;27;48830;-59
2022/06/05 03:33:17;;;;;;;;;14.50;13.75;;;;;19.17;64.87;100643.59;5106836;27;45205;-59
2022/06/05 03:35:44;;;;;;;;;12.25;9.75;;;;;19.14;65.16;100641.13;5097635;27;45846;-59
2022/06/05 03:38:10;;;;;;;;;13.25;11.25;;;;;19.09;65.20;100636.16;5108042;27;45303;-59
2022/06/05 03:40:39;;;;;;;;;14.75;12.25;;;;;19.07;65.37;100640.69;5107689;27;45419;-59
2022/06/05 03:43:04;;;;;;;;;13.75;12.25;;;;;19.05;65.46;100639.06;5117094;27;46321;-59
2022/06/05 03:45:30;;;;;;;;;16.00;12.00;;;;;19.03;65.39;100648.94;5109776;27;47041;-59
2022/06/05 03:47:55;;;;;;;;;13.25;10.00;;;;;19.03;65.45;100651.59;5112318;27;45998;-59
2022/06/05 03:50:20;;;;;;;;;12.50;10.00;;;;;19.01;65.47;100648.19;5110734;27;68265;-59
2022/06/05 03:52:46;;;;;;;;;15.75;10.00;;;;;18.99;65.68;100658.91;5111577;27;66407;-59
2022/06/05 03:55:14;;;;;;;;;13.25;10.50;;;;;19.00;65.56;100663.25;5116602;27;45452;-59
2022/06/05 03:57:40;;;;;;;;;12.75;11.25;;;;;19.02;65.48;100671.97;5116163;27;45316;-59
2022/06/05 04:00:07;;;;;;;;;13.00;10.00;;;;;19.03;65.46;100670.16;5092278;27;45548;-59
2022/06/05 04:02:32;;;;;;;;;9.50;9.50;;;;;19.03;65.25;100680.75;5116385;27;45500;-59
2022/06/05 04:05:03;;;;;;;;;12.00;9.00;;;;;19.04;65.30;100672.72;5111893;27;45428;-59
2022/06/05 04:07:29;;;;;;;;;10.25;8.00;;;;;19.02;65.37;100679.91;5112485;27;46038;-59
2022/06/05 04:09:54;;;;;;;;;8.00;8.00;;;;;19.00;65.11;100678.31;5109729;27;72107;-59
2022/06/05 04:12:19;;;;;;;;;10.25;8.75;;;;;19.00;65.05;100684.47;5112670;27;73207;-59
2022/06/05 04:14:44;;;;;;;;;9.00;8.00;;;;;18.99;65.53;100689.88;5109467;27;68165;-59
2022/06/05 04:17:10;;;;;;;;;10.00;8.50;;;;;19.00;65.28;100699.50;5115544;27;70113;-59
2022/06/05 04:19:36;;;;;;;;;9.75;9.25;;;;;19.03;65.31;100700.19;5114025;27;45382;-59
2022/06/05 04:22:01;;;;;;;;;11.50;11.50;;;;;19.07;65.39;100699.06;5116916;27;45462;-60
2022/06/05 04:24:27;;;;;;;;;19.25;16.75;;;;;19.11;65.25;100702.38;5106205;27;45527;-59
2022/06/05 04:26:52;;;;;;;;;15.25;15.25;;;;;19.13;65.08;100701.31;5114867;27;45541;-59
2022/06/05 04:29:18;;;;;;;;;14.25;13.00;;;;;19.13;65.05;100711.91;5106969;27;70870;-59
2022/06/05 04:31:46;;;;;;;;;9.00;8.50;;;;;19.17;65.00;100717.88;5117260;27;60089;-59
2022/06/05 04:34:15;;;;;;;;;11.00;9.00;;;;;19.18;65.19;100726.72;5107691;27;45314;-59
2022/06/05 04:36:41;;;;;;;;;10.25;9.25;;;;;19.19;65.01;100720.44;5112140;27;45441;-60
2022/06/05 04:39:06;;;;;;;;;9.50;8.00;;;;;19.20;64.98;100723.00;5110779;27;46637;-59
2022/06/05 04:41:32;;;;;;;;;9.75;7.25;;;;;19.19;65.16;100723.94;5111103;27;45817;-59
2022/06/05 04:43:58;;;;;;;;;14.25;11.00;;;;;19.18;64.86;100727.56;5114435;27;46015;-59
2022/06/05 04:46:25;;;;;;;;;10.50;8.00;;;;;19.20;65.07;100740.72;5112473;27;45235;-59
2022/06/05 04:48:51;;;;;;;;;11.50;8.50;;;;;19.19;64.81;100739.00;5114017;27;45516;-59
2022/06/05 04:51:18;;;;;;;;;10.75;8.50;;;;;19.19;64.80;100739.84;5107645;27;45925;-59
2022/06/05 04:53:44;;;;;;;;;9.00;9.00;;;;;19.22;64.79;100746.78;5114180;27;45215;-59
2022/06/05 04:56:12;;;;;;;;;10.00;8.25;;;;;19.21;65.03;100756.56;5109836;27;45250;-59
2022/06/05 04:58:38;;;;;;;;;12.00;8.50;;;;;19.22;64.79;100754.75;5114172;27;45368;-59
2022/06/05 05:01:15;;;;;;;;;12.00;8.50;;;;;19.25;64.81;100752.75;5103277;27;47087;-59
2022/06/05 05:03:41;;;;;;;;;9.75;8.25;;;;;19.24;64.61;100753.69;5108891;27;45444;-59
2022/06/05 05:06:06;;;;;;;;;11.50;9.00;;;;;19.25;64.63;100760.72;5108179;27;45481;-59
2022/06/05 05:08:32;;;;;;;;;10.00;9.25;;;;;19.30;64.66;100763.06;5118862;27;70360;-59
2022/06/05 05:10:57;;;;;;;;;9.00;7.75;;;;;19.33;64.42;100753.09;5116101;27;45456;-59
2022/06/05 05:13:22;;;;;;;;;12.75;9.00;;;;;19.37;64.46;100753.78;5115076;27;61008;-59
2022/06/05 05:15:52;;;;;;;;;10.00;9.25;;;;;19.41;64.66;100755.28;5116570;27;66068;-59
2022/06/05 05:18:17;;;;;;;;;14.25;11.00;;;;;19.43;64.67;100753.38;5100150;27;45903;-59
2022/06/05 05:20:42;;;;;;;;;7.75;7.75;;;;;19.45;64.51;100750.63;5111797;27;46497;-59
2022/06/05 05:23:08;;;;;;;;;9.00;9.00;;;;;19.49;64.56;100760.09;5114560;27;55500;-59
2022/06/05 05:25:34;;;;;;;;;10.00;9.00;;;;;19.53;64.33;100757.16;5111121;27;46875;-59
2022/06/05 05:27:59;;;;;;;;;10.00;10.00;;;;;19.59;64.14;100753.25;5113993;27;66198;-59
2022/06/05 05:30:24;;;;;;;;;8.00;7.75;;;;;19.64;63.87;100750.31;5105625;27;71659;-59
2022/06/05 05:32:50;;;;;;;;;10.00;9.00;;;;;19.66;64.15;100753.69;5101286;27;73115;-60
2022/06/05 05:35:16;;;;;;;;;9.50;8.50;;;;;19.69;64.13;100746.38;5115911;27;45604;-60
2022/06/05 05:37:41;;;;;;;;;11.00;8.00;;;;;19.74;63.88;100748.75;5114991;27;45298;-59
2022/06/05 05:42:52;;;;;;;;;10.25;9.00;;;;;19.81;64.04;100759.84;5119824;27;45252;-60
2022/06/05 05:45:18;;;;;;;;;11.75;10.50;;;;;19.84;63.51;100759.66;5111741;27;69114;-60
2022/06/05 05:47:43;;;;;;;;;11.00;9.00;;;;;19.86;63.57;100761.22;5111369;27;64484;-60
2022/06/05 05:50:11;;;;;;;;;12.00;9.75;;;;;19.91;63.51;100768.91;5106831;27;75669;-60
2022/06/05 05:52:37;;;;;;;;;15.00;10.50;;;;;19.94;63.47;100763.41;5111970;27;45860;-60
2022/06/05 05:55:04;;;;;;;;;9.00;9.00;;;;;19.99;63.79;100761.31;5118888;27;45356;-59
2022/06/05 05:57:29;;;;;;;;;8.00;7.75;;;;;20.05;63.26;100754.72;5115978;27;45473;-59
2022/06/05 05:59:55;;;;;;;;;11.00;11.00;;;;;20.11;63.26;100754.31;5103703;27;45995;-59
2022/06/05 06:02:22;;;;;;;;;9.00;9.00;;;;;20.13;63.24;100747.06;5113660;27;45330;-59
2022/06/05 06:04:49;;;;;;;;;11.50;10.00;;;;;20.14;62.91;100751.44;5111666;27;45422;-59
2022/06/05 06:07:15;;;;;;;;;15.00;12.00;;;;;20.15;63.06;100750.50;5100202;27;45542;-60
2022/06/05 06:09:42;;;;;;;;;11.75;8.50;;;;;20.20;63.18;100747.53;5111178;27;45437;-60
2022/06/05 06:12:08;;;;;;;;;12.50;10.75;;;;;20.22;63.17;100737.63;5107561;27;46012;-60
2022/06/05 06:14:34;;;;;;;;;13.50;12.00;;;;;20.30;63.06;100748.59;5093392;27;45620;-60
2022/06/05 06:17:00;;;;;;;;;10.00;10.00;;;;;20.36;62.99;100748.22;5114731;27;66162;-60
2022/06/05 06:19:25;;;;;;;;;13.75;11.00;;;;;20.37;62.58;100741.91;5114351;27;45547;-60
2022/06/05 06:21:51;;;;;;;;;11.75;11.50;;;;;20.41;62.99;100740.75;5117335;27;46038;-60
2022/06/05 06:24:16;;;;;;;;;18.25;12.00;;;;;20.45;62.85;100731.63;5108565;27;45497;-60
2022/06/05 06:26:42;;;;;;;;;13.00;11.50;;;;;20.46;62.57;100735.97;5112927;27;49848;-60
2022/06/05 06:29:08;;;;;;;;;15.50;11.25;;;;;20.45;62.66;100728.97;5110797;27;46019;-60
2022/06/05 06:31:34;;;;;;;;;15.75;14.25;;;;;20.45;62.74;100722.78;5110809;27;45540;-59
2022/06/05 06:34:01;;;;;;;;;13.75;10.75;;;;;20.49;63.00;100724.28;5108999;27;45213;-59
2022/06/05 06:36:27;;;;;;;;;10.25;5.25;;;;;20.56;63.08;100735.34;5106789;27;45445;-59
2022/06/05 06:38:52;;;;;;;;;15.50;12.50;;;;;20.64;62.55;100727.72;5111901;27;45585;-59
2022/06/05 06:41:18;;;;;;;;;11.00;11.00;;;;;20.68;62.36;100718.56;5103563;27;69291;-60
2022/06/05 06:43:44;;;;;;;;;13.25;10.75;;;;;20.78;62.72;100721.44;5112075;27;49428;-59
2022/06/05 06:46:11;;;;;;;;;13.00;10.75;;;;;20.87;62.44;100723.44;5108818;27;45305;-59
2022/06/05 06:48:37;;;;;;;;;17.00;12.00;;;;;20.96;62.86;100719.28;5117929;27;46352;-60
2022/06/05 06:51:04;;;;;;;;;11.75;10.50;;;;;21.01;62.39;100711.81;5108748;27;72028;-60
2022/06/05 06:53:30;;;;;;;;;10.00;10.00;;;;;21.12;62.01;100711.06;5108082;27;45331;-60
2022/06/05 06:55:56;;;;;;;;;13.25;12.00;;;;;21.20;62.09;100709.53;5113934;27;45377;-59
2022/06/05 06:58:22;;;;;;;;;12.75;12.75;;;;;21.26;61.67;100710.91;5119441;27;46335;-60
2022/06/05 07:00:47;;;;;;;;;12.25;10.00;;;;;21.31;61.77;100698.13;5110030;27;50310;-61
2022/06/05 07:03:13;;;;;;;;;13.25;11.25;;;;;21.37;61.42;100708.34;5105343;27;45490;-61
2022/06/05 07:05:39;;;;;;;;;11.75;9.25;;;;;21.45;61.70;100696.28;5113876;27;45476;-61
2022/06/05 07:08:05;;;;;;;;;8.50;8.50;;;;;21.55;60.91;100705.31;5104908;27;46345;-60
2022/06/05 07:10:30;;;;;;;;;8.00;6.50;;;;;21.61;60.99;100704.84;5111195;27;45682;-60
2022/06/05 07:12:56;;;;;;;;;12.75;10.25;;;;;21.66;61.17;100700.03;5111610;27;47370;-61
2022/06/05 07:15:21;;;;;;;;;13.00;9.50;;;;;21.68;61.20;100700.78;5103627;27;55064;-63
2022/06/05 07:17:47;;;;;;;;;9.50;9.00;;;;;21.70;60.50;100701.50;5114049;27;46191;-64
2022/06/05 07:20:13;;;;;;;;;10.00;7.75;;;;;21.71;60.46;100700.56;5108648;27;70292;-66
2022/06/05 07:22:38;;;;;;;;;7.25;7.25;;;;;21.75;60.56;100695.84;5099497;27;45414;-63
2022/06/05 07:25:04;;;;;;;;;5.50;5.25;;;;;21.78;60.71;100687.63;5105663;27;69994;-63
2022/06/05 07:27:29;;;;;;;;;7.75;6.50;;;;;21.84;60.00;100688.97;5097963;27;45465;-63
2022/06/05 07:29:55;;;;;;;;;6.50;6.00;;;;;21.92;60.04;100691.91;5113384;27;71117;-63
2022/06/05 07:32:21;;;;;;;;;4.25;4.25;;;;;21.99;59.69;100693.13;5107513;27;68214;-62
2022/06/05 07:34:47;;;;;;;;;9.00;6.00;;;;;22.03;59.73;100694.63;5114647;27;45553;-62
2022/06/05 07:37:13;;;;;;;;;8.00;4.50;;;;;22.02;58.72;100694.72;5108108;27;45323;-62
2022/06/05 07:39:39;;;;;;;;;7.50;5.25;;;;;21.95;59.59;100689.84;5102688;27;45831;-63
2022/06/05 07:42:04;;;;;;;;;5.25;4.25;;;;;22.01;59.44;100693.88;5113213;27;45340;-62
2022/06/05 07:44:30;;;;;;;;;5.00;4.75;;;;;22.06;59.55;100698.84;5099090;27;45423;-60
2022/06/05 07:46:55;;;;;;;;;6.00;6.00;;;;;22.07;58.99;100689.91;5100371;27;46270;-61
2022/06/05 07:49:21;;;;;;;;;5.75;5.25;;;;;22.08;59.33;100691.59;5090809;27;70389;-63
2022/06/05 07:54:31;;;;;;;;;7.25;6.00;;;;;22.04;59.20;100692.78;5119033;27;45309;-63
2022/06/05 07:57:10;;;;;;;;;9.00;7.00;;;;;22.03;58.92;100693.75;5120514;27;46189;-64
2022/06/05 07:59:38;;;;;;;;;9.50;8.50;;;;;22.09;59.43;100703.97;5119617;27;45286;-64
2022/06/05 08:02:07;;;;;;;;;9.00;7.00;;;;;22.16;58.74;100697.19;5120367;27;45257;-64
2022/06/05 08:04:33;;;;;;;;;7.75;7.00;;;;;22.21;59.02;100697.69;5091901;27;45281;-64
2022/06/05 08:06:59;;;;;;;;;8.75;8.75;;;;;22.29;58.32;100710.44;5114234;27;46394;-64
2022/06/05 08:09:26;;;;;;;;;7.50;6.25;;;;;22.33;58.70;100707.44;5116579;27;45428;-64
2022/06/05 08:11:51;;;;;;;;;8.00;8.00;;;;;22.44;58.10;100709.28;5112409;27;45551;-64
2022/06/05 08:14:16;;;;;;;;;9.50;8.00;;;;;22.55;57.86;100705.78;5118735;27;45464;-63
2022/06/05 08:16:46;;;;;;;;;5.50;5.00;;;;;22.68;57.63;100714.53;5109736;27;74462;-64
2022/06/05 08:19:17;;;;;;;;;7.75;7.00;;;;;22.81;57.25;100718.91;5103680;27;45406;-64
2022/06/05 08:21:42;;;;;;;;;5.50;5.50;;;;;22.85;57.59;100717.69;5113351;27;45334;-63
2022/06/05 08:24:08;;;;;;;;;8.75;8.25;;;;;22.90;57.21;100720.84;5118023;27;69090;-64
2022/06/05 08:26:34;;;;;;;;;9.75;8.50;;;;;22.93;57.22;100720.59;5120362;27;46364;-63
2022/06/05 08:29:00;;;;;;;;;9.00;9.00;;;;;22.92;56.73;100727.75;5118850;27;45460;-63
2022/06/05 08:31:25;;;;;;;;;9.75;8.00;;;;;22.86;57.10;100722.91;5118413;27;45313;-64
2022/06/05 08:33:50;;;;;;;;;8.00;8.00;;;;;22.81;56.79;100727.75;5106193;27;61909;-64
2022/06/05 08:36:16;;;;;;;;;7.75;7.00;;;;;22.77;57.06;100720.97;5103799;27;68952;-63
2022/06/05 08:41:28;;;;;;;;;4.75;4.75;;;;;22.58;56.87;100729.56;5105215;27;45378;-62
2022/06/05 08:43:59;;;;;;;;;4.75;4.75;;;;;22.51;56.76;100737.16;5118266;27;45399;-62
2022/06/05 08:46:26;;;;;;;;;7.25;7.00;;;;;22.41;57.01;100744.16;5123086;27;45382;-63
2022/06/05 08:48:56;;;;;;;;;4.75;4.50;;;;;22.34;56.88;100737.63;5113856;27;45680;-62
2022/06/05 08:52:01;;;;;;;;;11.00;11.00;;;;;22.31;57.19;100743.16;5103327;27;45403;-62
2022/06/05 08:54:44;;;;;;;;;5.75;5.75;;;;;22.28;57.57;100746.09;5073295;27;45579;-63
2022/06/05 08:57:17;;;;;;;;;5.00;5.00;;;;;22.27;57.31;100747.88;5102324;27;46051;-62
2022/06/05 08:59:45;;;;;;;;;7.00;5.75;;;;;22.23;57.19;100746.41;5104598;27;45600;-63
2022/06/05 09:02:19;;;;;;;;;6.25;6.25;;;;;22.19;57.76;100756.44;5097651;27;45474;-64
2022/06/05 09:05:08;;;;;;;;;4.50;4.50;;;;;22.11;57.53;100734.84;5122958;27;45293;-63
2022/06/05 09:07:42;;;;;;;;;5.25;5.25;;;;;22.09;58.07;100739.44;5100771;27;46315;-63
2022/06/05 09:10:15;;;;;;;;;9.00;8.75;;;;;22.09;57.80;100735.94;5097565;27;45369;-63
2022/06/05 09:12:47;;;;;;;;;8.50;7.50;;;;;22.13;57.83;100738.25;5120319;27;45353;-63
2022/06/05 09:15:24;;;;;;;;;9.75;9.00;;;;;22.21;57.77;100732.34;5102858;27;45400;-63
2022/06/05 09:17:59;;;;;;;;;8.00;6.75;;;;;22.27;57.87;100737.22;5104434;27;47186;-63
2022/06/05 09:20:46;;;;;;;;;9.50;7.00;;;;;22.33;58.33;100746.59;5119674;27;45176;-63
2022/06/05 09:23:47;;;;;;;;;7.75;7.75;;;;;22.36;58.10;100757.00;5118647;27;45477;-63
2022/06/05 09:26:16;;;;;;;;;8.50;5.25;;;;;22.35;57.94;100756.16;5100752;27;45272;-62
2022/06/05 09:28:51;;;;;;;;;5.75;5.50;;;;;22.29;57.99;100771.78;5099631;27;46196;-62
2022/06/05 09:31:39;;;;;;;;;8.00;5.75;;;;;22.19;57.61;100777.78;5101035;27;45510;-62
2022/06/05 09:34:11;;;;;;;;;7.00;6.00;;;;;22.09;57.80;100776.75;5120413;27;45476;-63
2022/06/05 09:36:37;;;;;;;;;8.00;6.50;;;;;22.01;58.00;100787.16;5103688;27;45696;-63
2022/06/05 09:39:23;;;;;;;;;4.75;4.50;;;;;21.94;58.73;100796.56;5115471;27;58372;-63
2022/06/05 09:42:12;;;;;;;;;6.50;6.50;;;;;21.90;59.16;100800.41;5100065;27;45437;-63
2022/06/05 09:44:50;;;;;;;;;6.00;6.00;;;;;21.88;59.01;100803.19;5102707;27;45365;-63
2022/06/05 09:47:24;;;;;;;;;5.50;4.75;;;;;21.86;58.65;100809.59;5118702;27;45403;-63
2022/06/05 09:49:57;;;;;;;;;7.00;7.00;;;;;21.84;59.31;100809.72;5118616;27;46108;-63
2022/06/05 09:52:24;;;;;;;;;9.00;8.00;;;;;21.85;58.80;100805.22;5101992;27;45899;-63
2022/06/05 09:55:00;;;;;;;;;9.00;8.00;;;;;21.87;59.21;100797.97;5111539;27;45231;-63
2022/06/05 10:00:37;;;;;;;;;7.75;7.00;;;;;21.85;59.22;100797.22;5118017;27;45662;-63
2022/06/05 10:03:05;;;;;;;;;14.00;10.25;;;;;21.85;58.57;100798.09;5117080;27;45339;-63
2022/06/05 10:05:34;;;;;;;;;11.75;8.25;;;;;21.86;58.98;100796.28;5117633;27;45308;-63
2022/06/05 10:08:08;;;;;;;;;9.25;9.00;;;;;21.86;59.38;100805.13;5110136;27;45508;-63
2022/06/05 10:10:38;;;;;;;;;8.50;7.75;;;;;21.84;59.19;100807.03;5116318;27;45375;-63
2022/06/05 10:13:16;;;;;;;;;8.25;7.75;;;;;21.80;59.15;100811.75;5099259;27;45393;-63
2022/06/05 10:15:55;;;;;;;;;11.50;9.00;;;;;21.73;59.26;100821.16;5100263;27;45426;-63
2022/06/05 10:18:36;;;;;;;;;9.50;9.00;;;;;21.66;59.17;100819.91;5096830;27;45313;-63
2022/06/05 10:21:07;;;;;;;;;10.25;8.00;;;;;21.61;59.17;100817.56;5098868;27;45384;-63
2022/06/05 10:24:08;;;;;;;;;10.25;10.25;;;;;21.59;59.54;100822.16;5100356;27;45292;-63
2022/06/05 10:26:38;;;;;;;;;11.00;9.00;;;;;21.62;58.95;100826.41;5077631;27;45451;-63
2022/06/05 10:29:15;;;;;;;;;11.00;9.00;;;;;21.65;58.76;100828.84;5118554;27;45373;-63
2022/06/05 10:31:48;;;;;;;;;11.25;9.25;;;;;21.64;59.18;100829.81;5122444;27;45408;-64
2022/06/05 10:34:34;;;;;;;;;11.75;11.75;;;;;21.66;58.91;100829.72;5086237;27;45332;-63
2022/06/05 10:37:12;;;;;;;;;9.00;8.75;;;;;21.69;58.29;100829.47;5113459;27;45444;-62
2022/06/05 10:39:53;;;;;;;;;12.00;12.00;;;;;21.75;58.25;100832.53;5096706;27;45575;-63
2022/06/05 10:42:31;;;;;;;;;9.75;9.75;;;;;21.82;58.54;100829.44;5098100;27;46623;-62
2022/06/05 10:45:02;;;;;;;;;18.50;17.00;;;;;21.90;58.49;100835.03;5101365;27;45952;-63
2022/06/05 10:47:55;;;;;;;;;13.25;11.75;;;;;21.98;58.12;100828.19;5081298;27;45272;-63
2022/06/05 10:50:58;;;;;;;;;13.75;13.25;;;;;22.01;57.92;100829.81;5116040;27;45286;-63
2022/06/05 10:53:36;;;;;;;;;14.00;10.50;;;;;22.03;57.95;100832.31;5098429;27;46685;-63
2022/06/05 10:56:26;;;;;;;;;14.00;13.75;;;;;22.02;57.66;100839.47;5112193;27;45246;-63
2022/06/05 10:58:58;;;;;;;;;13.75;11.00;;;;;21.99;57.82;100843.22;5100892;27;45316;-63
2022/06/05 11:02:05;;;;;;;;;12.50;12.50;;;;;22.00;57.73;100847.59;5100279;27;45450;-63
2022/06/05 11:04:43;;;;;;;;;17.25;14.25;;;;;22.04;57.60;100842.88;5079399;27;45441;-63
2022/06/05 11:07:37;;;;;;;;;15.50;13.50;;;;;22.09;57.29;100855.88;5115620;27;45314;-63
2022/06/05 11:10:12;;;;;;;;;17.75;13.25;;;;;22.18;57.13;100848.03;5101695;27;45400;-63
2022/06/05 11:15:34;;;;;;;;;14.00;13.25;;;;;22.24;56.47;100843.22;5104266;27;45881;-63
2022/06/05 11:18:22;;;;;;;;;31.50;28.00;;;;;22.29;56.81;100851.75;5113281;27;45398;-63
2022/06/05 11:20:55;;;;;;;;;41.00;33.75;;;;;22.28;56.25;100853.56;5100351;27;45391;-63
2022/06/05 11:23:23;;;;;;;;;13.75;11.50;;;;;22.24;56.64;100856.53;5114515;27;45333;-65
2022/06/05 11:25:54;;;;;;;;;17.75;14.00;;;;;22.18;56.68;100857.84;5102028;27;46317;-65
2022/06/05 11:28:32;;;;;;;;;19.75;16.00;;;;;22.07;56.43;100850.66;5115079;27;45821;-61
2022/06/05 11:31:20;;;;;;;;;15.25;14.50;;;;;21.94;57.33;100849.88;5107452;27;45590;-64
2022/06/05 11:33:55;;;;;;;;;17.25;15.00;;;;;21.87;56.83;100851.25;5095833;27;45497;-64
2022/06/05 11:36:26;;;;;;;;;15.50;14.25;;;;;21.83;57.40;100849.78;5096305;27;45284;-64
2022/06/05 11:39:07;;;;;;;;;16.75;15.00;;;;;21.80;57.33;100862.38;5100506;27;45860;-64
2022/06/05 11:41:47;;;;;;;;;27.25;21.75;;;;;21.77;58.06;100869.72;5114775;27;45470;-63
2022/06/05 11:44:31;;;;;;;;;21.00;18.25;;;;;21.71;57.75;100871.03;5117881;27;45247;-64
2022/06/05 11:47:07;;;;;;;;;19.75;14.75;;;;;21.61;57.44;100873.47;5112186;27;45399;-63
2022/06/05 11:49:53;;;;;;;;;17.25;14.75;;;;;21.51;57.96;100880.41;5096853;27;45738;-64